Time;durP1;ratioP1;P1;durP2;ratioP2;P2;SDS_P1;SDS_P2;PMS_P1;PMS_P2;Temp;Humidity;BMP_temperature;BMP_pressure;BME280_temperature;BME280_humidity;BME280_pressure;Samples;Min_cycle;Max_cycle;Signal;HPM_P1;HPM_P2
2022/11/29 00:00:24;;;;;;;126.45;23.15;;;8.50;99.90;;;;;;5049840;28;20611;-65
2022/11/29 00:02:52;;;;;;;114.28;22.65;;;8.50;99.90;;;;;;5047384;28;20056;-65
2022/11/29 00:05:17;;;;;;;118.20;21.58;;;8.40;99.90;;;;;;5057043;28;20091;-65
2022/11/29 00:07:43;;;;;;;128.02;22.95;;;8.50;99.90;;;;;;5051154;28;20044;-65
2022/11/29 00:10:09;;;;;;;134.35;22.73;;;8.40;99.90;;;;;;5046182;28;20049;-65
2022/11/29 00:12:35;;;;;;;128.32;23.50;;;8.40;99.90;;;;;;5049470;28;20049;-65
2022/11/29 00:15:01;;;;;;;134.50;23.00;;;8.40;99.90;;;;;;5047556;28;20072;-65
2022/11/29 00:17:26;;;;;;;131.95;24.20;;;8.30;99.90;;;;;;5045728;28;20041;-65
2022/11/29 00:19:52;;;;;;;142.05;23.77;;;8.40;99.90;;;;;;5064432;28;20044;-65
2022/11/29 00:22:18;;;;;;;136.23;24.70;;;8.40;99.90;;;;;;5051611;28;20080;-65
2022/11/29 00:24:43;;;;;;;122.32;23.15;;;8.40;99.90;;;;;;5070597;28;20044;-65
2022/11/29 00:27:09;;;;;;;120.20;21.50;;;8.40;99.90;;;;;;5050735;28;20041;-65
2022/11/29 00:29:35;;;;;;;129.48;24.35;;;8.40;99.90;;;;;;5070746;28;20041;-65
2022/11/29 00:32:00;;;;;;;136.02;22.33;;;8.40;99.90;;;;;;5050201;28;20053;-65
2022/11/29 00:34:26;;;;;;;151.55;25.35;;;8.40;99.90;;;;;;5053319;28;20049;-65
2022/11/29 00:36:52;;;;;;;134.85;23.73;;;8.50;99.90;;;;;;5034005;28;20045;-65
2022/11/29 00:39:18;;;;;;;133.52;23.08;;;8.40;99.90;;;;;;5065848;28;20070;-65
2022/11/29 00:41:43;;;;;;;130.45;23.92;;;8.30;99.90;;;;;;5052403;28;20099;-65
2022/11/29 00:44:09;;;;;;;139.88;23.25;;;8.50;99.90;;;;;;5028250;28;20051;-65
2022/11/29 00:46:36;;;;;;;141.77;22.80;;;8.40;99.90;;;;;;5029185;28;20053;-65
2022/11/29 00:49:02;;;;;;;115.35;21.75;;;8.40;99.90;;;;;;5039927;28;20076;-65
2022/11/29 00:51:27;;;;;;;128.40;22.52;;;8.30;99.90;;;;;;5053420;28;20053;-65
2022/11/29 00:53:53;;;;;;;118.93;22.98;;;8.40;99.90;;;;;;5040220;28;20068;-65
2022/11/29 00:56:18;;;;;;;143.50;22.40;;;8.30;99.90;;;;;;5042327;28;20446;-65
2022/11/29 00:58:44;;;;;;;144.00;23.35;;;8.40;99.90;;;;;;5050910;28;20432;-65
2022/11/29 01:01:10;;;;;;;144.77;24.00;;;8.40;99.90;;;;;;5046701;28;20045;-65
2022/11/29 01:03:36;;;;;;;139.95;23.77;;;8.40;99.90;;;;;;5051630;28;20062;-65
2022/11/29 01:06:05;;;;;;;147.40;23.92;;;8.40;99.90;;;;;;5037969;28;20101;-65
2022/11/29 01:08:31;;;;;;;151.00;25.10;;;8.40;99.90;;;;;;5056513;28;20052;-65
2022/11/29 01:11:06;;;;;;;131.35;23.17;;;8.40;99.90;;;;;;5067592;28;20064;-65
2022/11/29 01:13:32;;;;;;;106.55;20.25;;;8.40;99.90;;;;;;5040172;28;20078;-65
2022/11/29 01:15:58;;;;;;;111.20;22.83;;;8.40;99.90;;;;;;5066227;28;20040;-65
2022/11/29 01:18:24;;;;;;;111.55;21.30;;;8.40;99.90;;;;;;5078480;28;20048;-65
2022/11/29 01:21:02;;;;;;;115.65;22.33;;;8.40;99.90;;;;;;5064333;28;20040;-65
2022/11/29 01:23:28;;;;;;;128.15;23.00;;;8.30;99.90;;;;;;5027354;28;20049;-65
2022/11/29 01:25:59;;;;;;;148.27;24.38;;;8.30;99.90;;;;;;5058236;28;20057;-65
2022/11/29 01:28:25;;;;;;;154.90;25.77;;;8.30;99.90;;;;;;5066568;28;20048;-65
2022/11/29 01:30:51;;;;;;;144.23;24.20;;;8.20;99.90;;;;;;5057599;28;20045;-65
2022/11/29 01:33:17;;;;;;;156.75;26.15;;;8.30;99.90;;;;;;5064627;28;20041;-65
2022/11/29 01:35:47;;;;;;;147.80;22.02;;;8.30;99.90;;;;;;5059607;28;20511;-65
2022/11/29 01:38:13;;;;;;;157.10;23.50;;;8.30;99.90;;;;;;5059990;28;20047;-65
2022/11/29 01:40:38;;;;;;;154.50;24.50;;;8.30;99.90;;;;;;5039261;28;20124;-65
2022/11/29 01:43:16;;;;;;;156.85;24.60;;;8.40;99.90;;;;;;5046623;28;20131;-65
2022/11/29 01:45:42;;;;;;;161.07;24.55;;;8.40;99.90;;;;;;5047225;28;20045;-65
2022/11/29 01:48:09;;;;;;;153.50;22.45;;;8.40;99.90;;;;;;5046830;28;20135;-65
2022/11/29 01:50:38;;;;;;;155.40;24.10;;;8.30;99.90;;;;;;5064230;28;20671;-65
2022/11/29 01:53:04;;;;;;;146.05;25.45;;;8.40;99.90;;;;;;5064372;28;20075;-65
2022/11/29 01:55:31;;;;;;;165.25;23.30;;;8.40;99.90;;;;;;5060779;28;20047;-65
2022/11/29 01:57:59;;;;;;;167.05;25.80;;;8.30;99.90;;;;;;5073481;28;20104;-65
2022/11/29 02:00:24;;;;;;;159.48;23.10;;;8.30;99.90;;;;;;5079819;28;20059;-65
2022/11/29 02:03:09;;;;;;;148.80;25.05;;;8.30;99.90;;;;;;5064069;28;20081;-65
2022/11/29 02:05:40;;;;;;;179.13;26.48;;;8.30;99.90;;;;;;5071333;28;20060;-65
2022/11/29 02:08:09;;;;;;;136.95;23.33;;;8.30;99.90;;;;;;5083579;28;20044;-65
2022/11/29 02:11:06;;;;;;;141.35;24.20;;;8.30;99.90;;;;;;5053736;28;20052;-65
2022/11/29 02:13:44;;;;;;;129.15;23.92;;;8.30;99.90;;;;;;5051458;28;20051;-65
2022/11/29 02:16:20;;;;;;;158.50;24.13;;;8.30;99.90;;;;;;5040384;28;20446;-65
2022/11/29 02:19:01;;;;;;;170.40;23.83;;;8.30;99.90;;;;;;5036316;28;20080;-65
2022/11/29 02:21:41;;;;;;;119.75;23.60;;;8.30;99.90;;;;;;5067352;28;20128;-65
2022/11/29 02:24:32;;;;;;;161.27;24.60;;;8.20;99.90;;;;;;5050487;28;20114;-65
2022/11/29 02:27:12;;;;;;;169.43;24.75;;;8.20;99.90;;;;;;5070666;28;20056;-65
2022/11/29 02:30:06;;;;;;;185.85;23.27;;;8.20;99.90;;;;;;5071733;28;20076;-65
2022/11/29 02:33:05;;;;;;;187.07;24.27;;;8.20;99.90;;;;;;5066639;28;20056;-65
2022/11/29 02:35:42;;;;;;;119.37;21.63;;;8.20;99.90;;;;;;5068911;28;20056;-65
2022/11/29 02:38:20;;;;;;;134.55;23.40;;;8.20;99.90;;;;;;5041386;28;20042;-65
2022/11/29 02:41:14;;;;;;;142.48;22.75;;;8.20;99.90;;;;;;5043971;28;20391;-65
2022/11/29 02:44:01;;;;;;;126.82;21.45;;;8.20;99.90;;;;;;5068689;28;20052;-65
2022/11/29 02:46:53;;;;;;;169.45;24.20;;;8.30;99.90;;;;;;5056198;28;20119;-65
2022/11/29 02:49:47;;;;;;;148.73;22.60;;;8.30;99.90;;;;;;5066607;28;20148;-65
2022/11/29 02:52:23;;;;;;;156.55;24.33;;;8.20;99.90;;;;;;5060940;28;20041;-65
2022/11/29 02:55:00;;;;;;;147.50;24.05;;;8.30;99.90;;;;;;5069873;28;20040;-65
2022/11/29 02:57:39;;;;;;;170.18;23.90;;;8.20;99.90;;;;;;5052312;28;20052;-65
2022/11/29 03:00:09;;;;;;;180.65;25.15;;;8.20;99.90;;;;;;5067533;28;20041;-65
2022/11/29 03:03:01;;;;;;;150.68;24.15;;;8.20;99.90;;;;;;5053659;28;20502;-65
2022/11/29 03:05:52;;;;;;;131.55;22.88;;;8.20;99.90;;;;;;5073449;28;20063;-65
2022/11/29 03:08:39;;;;;;;143.85;23.52;;;8.30;99.90;;;;;;5052841;28;20052;-65
2022/11/29 03:11:43;;;;;;;142.82;23.85;;;8.20;99.90;;;;;;5056817;28;20068;-65
2022/11/29 03:14:14;;;;;;;161.05;24.92;;;8.20;99.90;;;;;;5045532;28;20053;-65
2022/11/29 03:17:04;;;;;;;123.57;22.75;;;8.20;99.90;;;;;;5070763;28;20102;-65
2022/11/29 03:19:58;;;;;;;144.70;24.23;;;8.20;99.90;;;;;;5057382;28;20048;-65
2022/11/29 03:22:42;;;;;;;136.20;22.85;;;8.20;99.90;;;;;;5044457;28;20128;-65
2022/11/29 03:25:20;;;;;;;119.18;22.80;;;8.20;99.90;;;;;;5065996;28;20075;-65
2022/11/29 03:28:01;;;;;;;106.15;20.50;;;8.20;99.90;;;;;;5049141;28;20053;-65
2022/11/29 03:30:31;;;;;;;126.53;23.90;;;8.30;99.90;;;;;;5044055;28;20041;-65
2022/11/29 03:33:05;;;;;;;166.32;25.23;;;8.20;99.90;;;;;;5034476;28;20123;-65
2022/11/29 03:36:00;;;;;;;159.57;25.35;;;8.20;99.90;;;;;;5044126;28;20057;-65
2022/11/29 03:38:44;;;;;;;127.45;22.92;;;8.10;99.90;;;;;;5054114;28;20060;-65
2022/11/29 03:41:32;;;;;;;110.35;21.92;;;8.20;99.90;;;;;;5041507;28;20053;-65
2022/11/29 03:44:11;;;;;;;125.78;23.63;;;8.10;99.90;;;;;;5050559;28;20125;-65
2022/11/29 03:47:01;;;;;;;142.43;24.85;;;8.20;99.90;;;;;;5037500;28;20053;-65
2022/11/29 03:49:36;;;;;;;141.90;22.90;;;8.20;99.90;;;;;;5060678;28;20116;-65
2022/11/29 03:52:23;;;;;;;140.10;23.05;;;8.20;99.90;;;;;;5054234;28;20046;-65
2022/11/29 03:55:07;;;;;;;158.07;23.88;;;8.10;99.90;;;;;;5057301;28;20053;-65
2022/11/29 03:57:49;;;;;;;150.85;24.92;;;8.10;99.90;;;;;;5044219;28;20053;-65
2022/11/29 04:00:16;;;;;;;164.60;24.02;;;8.10;99.90;;;;;;5064713;28;20096;-65
2022/11/29 04:03:19;;;;;;;157.07;27.20;;;8.00;99.90;;;;;;5040696;28;20508;-65
2022/11/29 04:06:21;;;;;;;170.88;24.08;;;8.10;99.90;;;;;;5041370;28;20144;-65
2022/11/29 04:09:37;;;;;;;143.25;24.73;;;8.10;99.90;;;;;;5030468;28;20060;-65
2022/11/29 04:12:31;;;;;;;197.00;28.52;;;8.20;99.90;;;;;;5029303;28;20053;-65
2022/11/29 04:15:18;;;;;;;195.65;27.73;;;8.10;99.90;;;;;;5068067;28;20045;-65
2022/11/29 04:17:59;;;;;;;196.93;27.88;;;8.10;99.90;;;;;;5038983;28;20072;-65
2022/11/29 04:20:44;;;;;;;203.70;27.58;;;8.00;99.90;;;;;;5060942;28;20076;-65
2022/11/29 04:23:40;;;;;;;156.63;23.90;;;8.00;99.90;;;;;;5053496;28;20583;-65
2022/11/29 04:26:59;;;;;;;121.30;22.80;;;8.10;99.90;;;;;;5060384;28;20088;-65
2022/11/29 04:29:34;;;;;;;168.75;25.55;;;8.00;99.90;;;;;;5003476;28;20086;-65
2022/11/29 04:32:31;;;;;;;212.90;26.23;;;8.00;99.90;;;;;;5003372;28;20073;-65
2022/11/29 04:35:02;;;;;;;181.82;26.17;;;8.10;99.90;;;;;;4976428;28;20051;-65
2022/11/29 04:37:46;;;;;;;178.13;25.05;;;8.10;99.90;;;;;;5029968;28;20054;-65
2022/11/29 04:40:40;;;;;;;171.95;23.63;;;8.00;99.90;;;;;;4984074;28;20535;-65
2022/11/29 04:43:40;;;;;;;175.75;22.90;;;8.00;99.90;;;;;;5014643;28;20058;-65
2022/11/29 04:46:30;;;;;;;180.60;22.48;;;7.90;99.90;;;;;;5021327;28;20061;-65
2022/11/29 04:49:10;;;;;;;192.77;23.43;;;7.80;99.90;;;;;;4983771;28;20058;-65
2022/11/29 04:52:09;;;;;;;165.80;22.70;;;7.80;99.90;;;;;;5009594;28;20062;-65
2022/11/29 04:54:57;;;;;;;165.35;22.10;;;7.70;99.90;;;;;;4968715;28;20206;-65
2022/11/29 04:57:45;;;;;;;223.68;23.48;;;7.80;99.90;;;;;;5010699;28;20074;-65
2022/11/29 05:00:14;;;;;;;165.20;22.38;;;7.70;99.90;;;;;;4993827;28;20078;-65
2022/11/29 05:03:06;;;;;;;152.43;23.30;;;7.70;99.90;;;;;;5028344;28;20052;-65
2022/11/29 05:05:42;;;;;;;216.63;24.23;;;7.60;99.90;;;;;;5071304;28;20296;-65
2022/11/29 05:08:37;;;;;;;151.02;22.08;;;7.60;99.90;;;;;;5074037;28;20056;-65
2022/11/29 05:11:24;;;;;;;191.90;24.65;;;7.70;99.90;;;;;;5027240;28;20064;-65
2022/11/29 05:14:33;;;;;;;167.88;23.60;;;7.60;99.90;;;;;;5046830;28;20094;-65
2022/11/29 05:17:30;;;;;;;161.50;22.35;;;7.60;99.90;;;;;;5044480;28;20053;-65
2022/11/29 05:20:20;;;;;;;144.80;23.48;;;7.60;99.90;;;;;;5039519;28;20049;-65
2022/11/29 05:23:10;;;;;;;128.10;21.60;;;7.70;99.90;;;;;;5048771;28;20045;-65
2022/11/29 05:25:54;;;;;;;170.15;23.38;;;7.60;99.90;;;;;;5052421;28;20049;-65
2022/11/29 05:28:52;;;;;;;137.48;22.20;;;7.70;99.90;;;;;;5048162;28;20046;-65
2022/11/29 05:31:52;;;;;;;140.73;22.55;;;7.70;99.90;;;;;;5035900;28;20048;-65
2022/11/29 05:34:24;;;;;;;150.18;23.58;;;7.60;99.90;;;;;;5012355;28;20504;-62
2022/11/29 05:37:00;;;;;;;139.90;21.48;;;7.50;99.90;;;;;;5059793;28;20059;-62
2022/11/29 05:40:03;;;;;;;184.15;23.55;;;7.60;99.90;;;;;;5051205;28;20497;-65
2022/11/29 05:42:59;;;;;;;183.35;23.70;;;7.60;99.90;;;;;;5061020;28;20542;-64
2022/11/29 05:45:44;;;;;;;152.68;23.48;;;7.60;99.90;;;;;;5067422;28;20567;-64
2022/11/29 05:48:22;;;;;;;145.15;21.75;;;7.40;99.90;;;;;;5048032;28;20053;-66
2022/11/29 05:51:05;;;;;;;141.32;21.33;;;7.50;99.90;;;;;;5037852;28;20041;-66
2022/11/29 05:53:48;;;;;;;135.95;23.38;;;7.50;99.90;;;;;;5049337;28;20068;-66
2022/11/29 05:56:48;;;;;;;122.90;21.27;;;7.50;99.90;;;;;;5038005;28;20059;-66
2022/11/29 05:59:24;;;;;;;153.80;22.00;;;7.50;99.90;;;;;;5037678;28;20049;-67
2022/11/29 06:02:12;;;;;;;193.52;24.02;;;7.50;99.90;;;;;;5045322;28;20364;-66
2022/11/29 06:05:02;;;;;;;151.10;22.42;;;7.50;99.90;;;;;;5044564;28;20064;-66
2022/11/29 06:07:44;;;;;;;194.02;23.23;;;7.40;99.90;;;;;;5002694;28;20064;-63
2022/11/29 06:10:16;;;;;;;112.97;20.50;;;7.40;99.90;;;;;;5038248;28;20094;-66
2022/11/29 06:12:54;;;;;;;169.55;24.27;;;7.40;99.90;;;;;;5057437;28;20567;-66
2022/11/29 06:15:30;;;;;;;144.77;21.13;;;7.30;99.90;;;;;;5055353;28;20061;-66
2022/11/29 06:18:58;;;;;;;178.10;22.65;;;7.50;99.90;;;;;;5055116;28;20041;-64
2022/11/29 06:21:56;;;;;;;112.78;20.00;;;7.40;99.90;;;;;;4904950;29;20117;-65
2022/11/29 06:24:38;;;;;;;179.52;24.02;;;7.50;99.90;;;;;;4881156;29;20095;-65
2022/11/29 06:27:42;;;;;;;169.85;23.05;;;7.40;99.90;;;;;;4890241;29;20310;-66
2022/11/29 06:30:20;;;;;;;119.75;22.23;;;7.30;99.90;;;;;;4885977;29;20057;-66
2022/11/29 06:32:53;;;;;;;140.52;22.35;;;7.30;99.90;;;;;;4890344;29;20054;-66
2022/11/29 06:35:21;;;;;;;134.75;22.42;;;7.30;99.90;;;;;;4879620;29;20048;-66
2022/11/29 06:37:52;;;;;;;157.77;22.20;;;7.30;99.90;;;;;;4895222;29;20410;-66
2022/11/29 06:40:18;;;;;;;133.25;20.48;;;7.30;99.90;;;;;;4907183;29;20087;-65
2022/11/29 06:42:43;;;;;;;114.13;20.58;;;7.30;99.90;;;;;;4901529;29;20052;-66
2022/11/29 06:45:14;;;;;;;68.72;18.15;;;7.40;99.90;;;;;;4887374;29;20462;-65
2022/11/29 06:47:42;;;;;;;132.90;20.80;;;7.30;99.90;;;;;;4896084;29;20143;-65
2022/11/29 06:50:31;;;;;;;128.82;22.20;;;7.30;99.90;;;;;;4907401;29;20092;-66
2022/11/29 06:53:02;;;;;;;123.47;20.45;;;7.40;99.90;;;;;;4864452;29;20048;-65
2022/11/29 06:56:06;;;;;;;88.95;19.00;;;7.30;99.90;;;;;;4892590;29;20060;-66
2022/11/29 06:58:44;;;;;;;141.07;22.08;;;7.40;99.90;;;;;;5012353;28;20065;-66
2022/11/29 07:01:27;;;;;;;124.63;21.70;;;7.30;99.90;;;;;;5020393;28;20213;-66
2022/11/29 07:04:08;;;;;;;122.78;20.85;;;7.40;99.90;;;;;;5030304;28;20057;-65
2022/11/29 07:06:34;;;;;;;89.22;20.40;;;7.30;99.90;;;;;;5059202;28;20056;-66
2022/11/29 07:09:09;;;;;;;124.72;21.40;;;7.40;99.90;;;;;;5049821;28;20044;-65
2022/11/29 07:11:36;;;;;;;106.07;22.63;;;7.30;99.90;;;;;;5049239;28;20060;-65
2022/11/29 07:14:02;;;;;;;96.40;20.00;;;7.40;99.90;;;;;;5043984;28;20051;-65
2022/11/29 07:17:05;;;;;;;102.70;21.17;;;7.40;99.90;;;;;;5043650;28;20121;-65
2022/11/29 07:20:02;;;;;;;101.70;19.65;;;7.30;99.90;;;;;;5075586;28;20041;-65
2022/11/29 07:23:02;;;;;;;114.40;20.67;;;7.40;99.90;;;;;;5020771;28;20080;-65
2022/11/29 07:26:13;;;;;;;75.88;19.27;;;7.30;99.90;;;;;;5038227;28;20559;-65
2022/11/29 07:29:04;;;;;;;97.05;21.95;;;7.40;99.90;;;;;;4974062;28;20062;-65
2022/11/29 07:31:42;;;;;;;91.63;21.20;;;7.40;99.90;;;;;;4980580;28;20191;-65
2022/11/29 07:34:21;;;;;;;95.13;19.65;;;7.40;99.90;;;;;;4979080;28;20118;-64
2022/11/29 07:37:20;;;;;;;100.20;20.67;;;7.40;99.90;;;;;;4989059;28;20053;-65
2022/11/29 07:40:35;;;;;;;104.60;19.58;;;7.40;99.90;;;;;;4996899;28;20058;-65
2022/11/29 07:43:15;;;;;;;111.80;21.92;;;7.40;99.90;;;;;;4934223;29;20155;-65
2022/11/29 07:45:41;;;;;;;90.22;19.38;;;7.40;99.90;;;;;;4938786;29;20055;-65
2022/11/29 07:48:09;;;;;;;87.63;20.48;;;7.40;99.90;;;;;;4957184;29;20086;-65
2022/11/29 07:50:35;;;;;;;105.85;21.17;;;7.40;99.90;;;;;;4946328;29;20074;-65
2022/11/29 07:53:01;;;;;;;114.97;22.05;;;7.40;99.90;;;;;;4949649;29;20055;-64
2022/11/29 07:55:28;;;;;;;115.43;22.92;;;7.50;99.90;;;;;;4914130;29;20580;-64
2022/11/29 07:57:55;;;;;;;106.45;21.75;;;7.50;99.90;;;;;;4940415;29;20090;-67
2022/11/29 08:00:21;;;;;;;109.50;23.67;;;7.50;99.90;;;;;;4947180;28;20523;-66
2022/11/29 08:02:48;;;;;;;81.07;19.40;;;7.50;99.90;;;;;;4940507;29;20071;-66
2022/11/29 08:05:14;;;;;;;76.25;19.88;;;7.50;99.90;;;;;;4990088;28;20049;-65
2022/11/29 08:07:41;;;;;;;88.97;20.73;;;7.50;99.90;;;;;;5012396;28;20053;-65
2022/11/29 08:10:10;;;;;;;103.43;21.73;;;7.50;99.90;;;;;;5027841;28;20059;-66
2022/11/29 08:12:40;;;;;;;103.03;23.20;;;7.50;99.90;;;;;;5024009;28;20057;-65
2022/11/29 08:15:06;;;;;;;;;;;7.60;99.90;;;;;;5018742;28;20584;-66
2022/11/29 08:17:32;;;;;;;62.72;19.42;;;7.50;99.90;;;;;;5056288;28;19956;-65
2022/11/29 08:19:57;;;;;;;104.57;22.27;;;7.50;99.90;;;;;;5058751;28;20056;-66
2022/11/29 08:22:23;;;;;;;96.70;22.15;;;7.60;99.90;;;;;;5079326;28;20056;-66
2022/11/29 08:24:49;;;;;;;93.22;21.35;;;7.60;99.90;;;;;;5089272;28;20405;-65
2022/11/29 08:27:14;;;;;;;82.32;20.50;;;7.50;99.90;;;;;;5080408;28;20147;-65
2022/11/29 08:29:40;;;;;;;103.10;21.10;;;7.50;99.90;;;;;;5057298;28;20049;-65
2022/11/29 08:32:07;;;;;;;92.00;21.08;;;7.60;99.90;;;;;;5062594;28;20523;-65
2022/11/29 08:34:33;;;;;;;111.90;22.95;;;7.60;99.90;;;;;;5044998;28;20053;-66
2022/11/29 08:36:59;;;;;;;87.05;22.35;;;7.70;99.90;;;;;;5065330;28;20048;-65
2022/11/29 08:39:24;;;;;;;91.95;21.55;;;7.60;99.90;;;;;;5058040;28;20064;-65
2022/11/29 08:41:50;;;;;;;96.10;21.60;;;7.70;99.90;;;;;;5083014;28;20040;-65
2022/11/29 08:44:17;;;;;;;84.05;20.10;;;7.70;99.90;;;;;;5073430;28;20059;-66
2022/11/29 08:49:27;;;;;;;91.32;20.98;;;7.60;99.90;;;;;;5062528;28;20198;-65
2022/11/29 08:53:40;;;;;;;75.65;20.42;;;7.60;99.90;;;;;;5046784;28;20136;-65
2022/11/29 08:54:41;;;;;;;68.95;19.98;;;7.60;99.90;;;;;;5046330;28;20189;-65
2022/11/29 08:57:07;;;;;;;53.80;17.52;;;7.70;99.90;;;;;;5064905;28;20303;-65
2022/11/29 08:59:33;;;;;;;58.85;18.00;;;7.60;99.90;;;;;;5062308;28;20045;-65
2022/11/29 09:01:58;;;;;;;56.28;18.25;;;7.60;99.90;;;;;;5075616;28;20088;-65
2022/11/29 09:04:24;;;;;;;56.55;17.25;;;7.70;99.90;;;;;;5069467;28;20112;-66
2022/11/29 09:06:50;;;;;;;51.63;17.65;;;7.60;99.90;;;;;;5040659;28;20118;-65
2022/11/29 09:09:16;;;;;;;61.55;19.45;;;7.70;99.90;;;;;;5039692;28;20049;-65
2022/11/29 09:11:42;;;;;;;51.35;18.73;;;7.70;99.90;;;;;;5038547;28;20068;-65
2022/11/29 09:14:13;;;;;;;49.50;17.90;;;7.70;99.90;;;;;;5035843;28;20042;-65
2022/11/29 09:16:39;;;;;;;53.50;18.55;;;7.80;99.90;;;;;;5061126;28;20105;-65
2022/11/29 09:19:05;;;;;;;48.08;17.55;;;7.70;99.90;;;;;;5041150;28;20041;-65
2022/11/29 09:21:35;;;;;;;45.67;16.45;;;7.70;99.90;;;;;;5048637;28;20084;-65
2022/11/29 09:24:05;;;;;;;48.15;17.55;;;7.80;99.90;;;;;;5040127;28;20033;-65
2022/11/29 09:26:33;;;;;;;48.10;17.13;;;7.80;99.90;;;;;;5039827;28;20086;-65
2022/11/29 09:29:01;;;;;;;42.65;16.13;;;7.90;99.90;;;;;;5042143;28;20481;-65
2022/11/29 09:31:28;;;;;;;44.65;17.27;;;7.90;99.90;;;;;;5037125;28;20118;-65
2022/11/29 09:33:54;;;;;;;47.78;16.48;;;7.90;99.90;;;;;;5046978;28;20056;-65
2022/11/29 09:36:21;;;;;;;52.97;16.92;;;8.00;99.90;;;;;;5022060;28;20064;-65
2022/11/29 09:38:47;;;;;;;49.30;17.63;;;8.00;99.90;;;;;;5047561;28;20053;-65
2022/11/29 09:41:26;;;;;;;42.22;15.55;;;8.00;99.90;;;;;;5016863;28;20053;-65
2022/11/29 09:44:09;;;;;;;43.78;16.20;;;7.90;99.90;;;;;;5034182;28;20077;-65
2022/11/29 09:46:59;;;;;;;45.67;17.13;;;7.90;99.90;;;;;;5043344;28;20383;-65
2022/11/29 09:49:46;;;;;;;46.97;16.30;;;7.90;99.90;;;;;;5031328;28;20215;-66
2022/11/29 09:52:33;;;;;;;46.42;16.90;;;7.90;99.90;;;;;;5039768;28;20045;-65
2022/11/29 09:55:23;;;;;;;44.95;17.17;;;8.10;99.90;;;;;;5065392;28;20076;-65
2022/11/29 09:57:51;;;;;;;43.45;16.10;;;8.10;99.90;;;;;;5043984;28;20040;-64
2022/11/29 10:00:21;;;;;;;47.30;16.92;;;8.00;99.90;;;;;;5051549;28;20092;-65
2022/11/29 10:02:55;;;;;;;45.20;17.57;;;8.10;99.90;;;;;;5051747;28;20044;-64
2022/11/29 10:05:28;;;;;;;38.72;15.30;;;8.20;99.90;;;;;;5057649;28;20124;-65
2022/11/29 10:08:04;;;;;;;42.08;16.33;;;8.20;99.90;;;;;;5076541;28;20619;-65
2022/11/29 10:10:42;;;;;;;36.40;15.50;;;8.20;99.90;;;;;;5042366;28;20045;-65
2022/11/29 10:13:34;;;;;;;36.45;14.80;;;8.20;99.90;;;;;;5025740;28;20147;-65
2022/11/29 10:16:14;;;;;;;40.80;15.15;;;8.20;99.90;;;;;;5038551;28;20052;-65
2022/11/29 10:18:48;;;;;;;38.67;15.90;;;8.30;99.90;;;;;;5050147;28;20060;-65
2022/11/29 10:21:23;;;;;;;33.08;14.65;;;8.30;99.90;;;;;;5047421;28;20080;-65
2022/11/29 10:23:56;;;;;;;36.33;14.25;;;8.30;99.90;;;;;;5062179;28;20049;-65
2022/11/29 10:26:23;;;;;;;34.63;14.00;;;8.20;99.90;;;;;;5051371;28;20052;-66
2022/11/29 10:28:50;;;;;;;40.40;14.52;;;8.30;99.90;;;;;;5070499;28;20042;-65
2022/11/29 10:31:24;;;;;;;33.25;14.70;;;8.40;99.90;;;;;;5021391;28;20037;-65
2022/11/29 10:33:50;;;;;;;35.45;16.58;;;8.30;99.90;;;;;;5052804;28;20049;-65
2022/11/29 10:36:41;;;;;;;36.20;16.00;;;8.30;99.90;;;;;;5026167;28;20128;-65
2022/11/29 10:39:20;;;;;;;45.58;16.85;;;8.30;99.90;;;;;;5037665;28;20548;-65
2022/11/29 10:41:50;;;;;;;44.40;16.73;;;8.40;99.90;;;;;;5037138;28;20045;-65
2022/11/29 10:44:16;;;;;;;;;;;8.40;99.90;;;;;;5045832;28;20057;-65
2022/11/29 10:46:41;;;;;;;34.97;14.85;;;8.40;99.90;;;;;;5041728;28;19920;-65
2022/11/29 10:49:19;;;;;;;37.63;16.08;;;8.50;99.90;;;;;;5047005;28;20041;-65
2022/11/29 10:51:45;;;;;;;35.90;16.27;;;8.50;99.90;;;;;;5041044;28;20202;-64
2022/11/29 10:54:34;;;;;;;37.42;15.02;;;8.60;99.90;;;;;;5047566;28;20041;-64
2022/11/29 10:57:00;;;;;;;33.65;13.95;;;8.60;99.90;;;;;;5038526;28;20576;-65
2022/11/29 10:59:28;;;;;;;31.88;13.35;;;8.60;99.90;;;;;;5046107;28;20049;-65
2022/11/29 11:01:56;;;;;;;35.35;13.88;;;8.50;99.90;;;;;;5045603;28;20044;-64
2022/11/29 11:04:27;;;;;;;29.00;14.45;;;8.70;99.90;;;;;;5061277;28;20151;-64
2022/11/29 11:06:56;;;;;;;29.60;12.82;;;8.70;99.90;;;;;;5043071;28;20052;-64
2022/11/29 11:09:28;;;;;;;33.42;13.30;;;8.60;99.90;;;;;;5063900;28;20048;-65
2022/11/29 11:11:57;;;;;;;30.17;12.90;;;8.70;99.90;;;;;;5073545;28;20259;-64
2022/11/29 11:14:33;;;;;;;33.78;13.60;;;8.70;99.90;;;;;;5063738;28;20036;-65
2022/11/29 11:17:15;;;;;;;32.53;13.55;;;8.60;99.90;;;;;;5072853;28;20144;-65
2022/11/29 11:19:41;;;;;;;30.65;12.90;;;8.60;99.90;;;;;;5053812;28;20542;-65
2022/11/29 11:22:20;;;;;;;28.23;12.80;;;8.70;99.90;;;;;;5043994;28;20061;-64
2022/11/29 11:24:54;;;;;;;26.33;13.27;;;8.70;99.90;;;;;;5051885;28;20357;-65
2022/11/29 11:27:35;;;;;;;28.30;11.95;;;8.70;99.90;;;;;;5058453;28;20060;-65
2022/11/29 11:30:03;;;;;;;32.75;12.55;;;8.60;99.90;;;;;;5062123;28;20337;-65
2022/11/29 11:32:29;;;;;;;28.13;12.27;;;8.60;99.90;;;;;;5080040;28;20090;-65
2022/11/29 11:34:57;;;;;;;26.23;11.60;;;8.50;99.90;;;;;;5043194;28;20525;-65
2022/11/29 11:37:29;;;;;;;29.58;12.00;;;8.60;99.90;;;;;;5042110;28;20700;-65
2022/11/29 11:40:25;;;;;;;31.73;12.75;;;8.70;99.90;;;;;;5041078;28;20104;-65
2022/11/29 11:42:51;;;;;;;26.23;12.07;;;8.70;99.90;;;;;;5043799;28;20060;-64
2022/11/29 11:45:20;;;;;;;34.55;13.20;;;8.70;99.90;;;;;;5039598;28;20133;-64
2022/11/29 11:47:56;;;;;;;26.23;12.43;;;8.60;99.90;;;;;;5062768;28;20056;-64
2022/11/29 11:50:44;;;;;;;33.67;13.25;;;8.60;99.90;;;;;;5065546;28;20132;-64
2022/11/29 11:53:36;;;;;;;30.23;12.88;;;8.60;99.90;;;;;;5060231;28;20211;-65
2022/11/29 11:56:06;;;;;;;31.55;13.20;;;8.80;99.90;;;;;;5028856;28;20410;-65
2022/11/29 11:58:43;;;;;;;32.00;12.68;;;8.80;99.90;;;;;;5065407;28;20046;-66
2022/11/29 12:01:11;;;;;;;31.30;13.25;;;8.90;99.90;;;;;;5032261;28;20134;-65
2022/11/29 12:04:00;;;;;;;32.65;12.82;;;8.80;99.90;;;;;;5071401;28;20056;-65
2022/11/29 12:06:50;;;;;;;32.65;12.63;;;8.80;99.90;;;;;;5036267;28;20113;-66
2022/11/29 12:09:34;;;;;;;33.87;12.13;;;8.80;99.90;;;;;;5053369;28;20044;-65
2022/11/29 12:12:05;;;;;;;37.03;12.93;;;8.90;99.90;;;;;;5052758;28;20052;-65
2022/11/29 12:14:54;;;;;;;42.95;13.27;;;8.80;99.90;;;;;;5062467;28;20048;-65
2022/11/29 12:17:45;;;;;;;32.72;12.30;;;8.80;99.90;;;;;;5053858;28;20103;-65
2022/11/29 12:20:21;;;;;;;34.78;13.60;;;9.00;99.90;;;;;;5078964;28;20040;-65
2022/11/29 12:22:57;;;;;;;32.88;12.70;;;9.00;99.90;;;;;;5061905;28;20519;-65
2022/11/29 12:25:29;;;;;;;40.50;13.50;;;9.00;99.90;;;;;;5057011;28;20104;-65
2022/11/29 12:27:55;;;;;;;32.78;12.45;;;8.90;99.90;;;;;;5053238;28;20063;-65
2022/11/29 12:30:21;;;;;;;31.40;13.23;;;8.90;99.90;;;;;;5077427;28;20056;-65
2022/11/29 12:33:03;;;;;;;35.78;13.82;;;9.00;99.90;;;;;;5058332;28;20063;-65
2022/11/29 12:35:54;;;;;;;38.50;14.40;;;9.00;99.90;;;;;;5032045;28;20076;-65
2022/11/29 12:38:51;;;;;;;37.70;14.45;;;9.00;99.90;;;;;;5050018;28;20049;-65
2022/11/29 12:41:41;;;;;;;39.30;15.43;;;9.10;99.90;;;;;;5020000;28;20143;-66
2022/11/29 12:44:34;;;;;;;36.88;14.60;;;9.10;99.90;;;;;;5037022;28;20045;-65
2022/11/29 12:47:25;;;;;;;39.35;15.02;;;9.20;99.90;;;;;;5036432;28;20054;-65
2022/11/29 12:50:06;;;;;;;37.38;14.63;;;9.10;99.90;;;;;;5045640;28;21134;-65
2022/11/29 12:52:57;;;;;;;42.25;14.88;;;9.20;99.90;;;;;;5039731;28;20055;-65
2022/11/29 12:55:51;;;;;;;34.45;14.90;;;9.20;99.90;;;;;;5035568;28;20045;-65
2022/11/29 12:58:25;;;;;;;40.10;15.45;;;9.20;99.90;;;;;;4994600;28;20760;-65
2022/11/29 13:01:14;;;;;;;33.22;15.15;;;9.20;99.90;;;;;;5038242;28;20045;-65
2022/11/29 13:03:55;;;;;;;35.08;15.15;;;9.20;99.90;;;;;;5024118;28;20052;-65
2022/11/29 13:06:57;;;;;;;28.33;14.38;;;9.20;99.90;;;;;;5032065;28;20118;-65
2022/11/29 13:09:35;;;;;;;41.15;14.95;;;9.20;99.90;;;;;;5055039;28;20056;-65
2022/11/29 13:12:12;;;;;;;35.20;14.70;;;9.20;99.90;;;;;;5030108;28;20443;-65
2022/11/29 13:14:54;;;;;;;35.35;14.82;;;9.30;99.90;;;;;;5064305;28;20048;-65
2022/11/29 13:17:41;;;;;;;33.63;14.80;;;9.30;99.90;;;;;;5048074;28;20066;-65
2022/11/29 13:20:40;;;;;;;33.75;14.95;;;9.20;99.90;;;;;;5032328;28;20083;-65
2022/11/29 13:23:24;;;;;;;30.45;14.55;;;9.20;99.90;;;;;;5044459;28;20067;-65
2022/11/29 13:25:53;;;;;;;29.60;13.70;;;9.20;99.90;;;;;;5049472;28;20091;-65